sensor_id;sensor_type;location;lat;lon;timestamp;P1;durP1;ratioP1;P2;durP2;ratioP2
75698;SDS011;64313;51.018;13.742;2024-03-23T00:52:45;10.10;;;4.85;;
75698;SDS011;64313;51.018;13.742;2024-03-23T00:55:11;8.85;;;4.60;;
75698;SDS011;64313;51.018;13.742;2024-03-23T00:57:36;7.65;;;4.53;;
75698;SDS011;64313;51.018;13.742;2024-03-23T01:00:01;10.43;;;4.75;;
75698;SDS011;64313;51.018;13.742;2024-03-23T01:02:27;7.97;;;4.70;;
75698;SDS011;64313;51.018;13.742;2024-03-23T01:04:53;9.25;;;5.07;;
75698;SDS011;64313;51.018;13.742;2024-03-23T01:07:18;8.13;;;4.50;;
75698;SDS011;64313;51.018;13.742;2024-03-23T01:09:44;10.40;;;5.10;;
75698;SDS011;64313;51.018;13.742;2024-03-23T01:12:10;10.63;;;5.10;;
75698;SDS011;64313;51.018;13.742;2024-03-23T01:14:35;11.02;;;6.20;;
75698;SDS011;64313;51.018;13.742;2024-03-23T01:17:01;10.65;;;5.72;;
75698;SDS011;64313;51.018;13.742;2024-03-23T01:19:26;12.77;;;6.10;;
75698;SDS011;64313;51.018;13.742;2024-03-23T01:21:52;11.75;;;6.22;;
75698;SDS011;64313;51.018;13.742;2024-03-23T01:24:17;12.07;;;6.63;;
75698;SDS011;64313;51.018;13.742;2024-03-23T01:26:42;13.00;;;6.50;;
75698;SDS011;64313;51.018;13.742;2024-03-23T01:29:08;10.82;;;5.63;;
75698;SDS011;64313;51.018;13.742;2024-03-23T01:31:33;13.00;;;7.22;;
75698;SDS011;64313;51.018;13.742;2024-03-23T01:33:58;14.13;;;6.63;;
75698;SDS011;64313;51.018;13.742;2024-03-23T01:36:24;14.05;;;7.18;;
75698;SDS011;64313;51.018;13.742;2024-03-23T01:38:49;13.85;;;6.88;;
75698;SDS011;64313;51.018;13.742;2024-03-23T01:41:15;14.30;;;7.00;;
75698;SDS011;64313;51.018;13.742;2024-03-23T01:43:40;14.43;;;7.47;;
75698;SDS011;64313;51.018;13.742;2024-03-23T01:46:06;14.40;;;7.50;;
75698;SDS011;64313;51.018;13.742;2024-03-23T01:48:31;13.63;;;7.28;;
75698;SDS011;64313;51.018;13.742;2024-03-23T01:50:57;15.20;;;7.72;;
75698;SDS011;64313;51.018;13.742;2024-03-23T01:53:23;13.00;;;7.70;;
75698;SDS011;64313;51.018;13.742;2024-03-23T01:55:50;15.43;;;8.40;;
75698;SDS011;64313;51.018;13.742;2024-03-23T01:58:16;14.50;;;7.68;;
75698;SDS011;64313;51.018;13.742;2024-03-23T02:00:41;15.23;;;8.25;;
75698;SDS011;64313;51.018;13.742;2024-03-23T02:03:22;15.15;;;8.38;;
75698;SDS011;64313;51.018;13.742;2024-03-23T02:05:52;16.10;;;9.15;;
75698;SDS011;64313;51.018;13.742;2024-03-23T02:08:18;14.48;;;8.65;;
75698;SDS011;64313;51.018;13.742;2024-03-23T02:10:45;20.60;;;9.43;;
75698;SDS011;64313;51.018;13.742;2024-03-23T02:13:12;17.10;;;9.43;;
75698;SDS011;64313;51.018;13.742;2024-03-23T02:15:39;19.63;;;10.00;;
75698;SDS011;64313;51.018;13.742;2024-03-23T02:18:04;16.85;;;10.15;;
75698;SDS011;64313;51.018;13.742;2024-03-23T02:20:30;18.48;;;10.20;;
75698;SDS011;64313;51.018;13.742;2024-03-23T02:22:55;18.70;;;10.88;;
75698;SDS011;64313;51.018;13.742;2024-03-23T02:25:20;17.92;;;9.63;;
75698;SDS011;64313;51.018;13.742;2024-03-23T02:27:46;18.02;;;10.02;;
75698;SDS011;64313;51.018;13.742;2024-03-23T02:30:11;20.30;;;10.88;;
75698;SDS011;64313;51.018;13.742;2024-03-23T02:32:36;18.52;;;10.43;;
75698;SDS011;64313;51.018;13.742;2024-03-23T02:35:02;21.30;;;11.48;;
75698;SDS011;64313;51.018;13.742;2024-03-23T02:37:27;18.85;;;10.95;;
75698;SDS011;64313;51.018;13.742;2024-03-23T02:39:53;20.75;;;11.02;;
75698;SDS011;64313;51.018;13.742;2024-03-23T02:42:18;21.13;;;11.00;;
75698;SDS011;64313;51.018;13.742;2024-03-23T02:44:44;20.83;;;11.10;;
75698;SDS011;64313;51.018;13.742;2024-03-23T02:47:11;20.50;;;11.40;;
75698;SDS011;64313;51.018;13.742;2024-03-23T02:49:36;20.35;;;11.10;;
75698;SDS011;64313;51.018;13.742;2024-03-23T02:52:03;20.15;;;11.57;;
75698;SDS011;64313;51.018;13.742;2024-03-23T02:54:28;19.95;;;11.50;;
75698;SDS011;64313;51.018;13.742;2024-03-23T02:56:54;21.13;;;10.85;;
75698;SDS011;64313;51.018;13.742;2024-03-23T02:59:19;19.50;;;11.18;;
75698;SDS011;64313;51.018;13.742;2024-03-23T03:01:44;23.40;;;12.00;;
75698;SDS011;64313;51.018;13.742;2024-03-23T03:04:10;19.20;;;10.80;;
75698;SDS011;64313;51.018;13.742;2024-03-23T03:06:35;20.98;;;11.88;;
75698;SDS011;64313;51.018;13.742;2024-03-23T03:09:00;19.33;;;10.95;;
75698;SDS011;64313;51.018;13.742;2024-03-23T03:11:25;18.52;;;10.95;;
75698;SDS011;64313;51.018;13.742;2024-03-23T03:13:51;20.15;;;10.77;;
75698;SDS011;64313;51.018;13.742;2024-03-23T03:16:16;20.27;;;11.25;;
75698;SDS011;64313;51.018;13.742;2024-03-23T03:18:42;22.83;;;11.70;;
75698;SDS011;64313;51.018;13.742;2024-03-23T03:21:07;19.80;;;11.73;;
75698;SDS011;64313;51.018;13.742;2024-03-23T03:23:36;18.67;;;10.98;;
75698;SDS011;64313;51.018;13.742;2024-03-23T03:26:05;20.70;;;11.63;;
75698;SDS011;64313;51.018;13.742;2024-03-23T03:28:33;18.42;;;10.48;;
75698;SDS011;64313;51.018;13.742;2024-03-23T03:30:59;19.73;;;11.80;;
75698;SDS011;64313;51.018;13.742;2024-03-23T03:33:26;20.67;;;11.50;;
75698;SDS011;64313;51.018;13.742;2024-03-23T03:35:52;19.92;;;11.40;;
75698;SDS011;64313;51.018;13.742;2024-03-23T03:38:18;20.25;;;10.95;;
75698;SDS011;64313;51.018;13.742;2024-03-23T03:40:43;20.98;;;11.80;;
75698;SDS011;64313;51.018;13.742;2024-03-23T03:43:09;19.55;;;11.60;;
75698;SDS011;64313;51.018;13.742;2024-03-23T03:45:34;19.98;;;10.73;;
75698;SDS011;64313;51.018;13.742;2024-03-23T03:47:59;21.73;;;11.73;;
75698;SDS011;64313;51.018;13.742;2024-03-23T03:50:26;21.08;;;11.85;;
75698;SDS011;64313;51.018;13.742;2024-03-23T03:52:51;21.80;;;11.98;;
75698;SDS011;64313;51.018;13.742;2024-03-23T03:55:16;20.45;;;11.40;;
75698;SDS011;64313;51.018;13.742;2024-03-23T03:57:42;19.48;;;11.20;;
75698;SDS011;64313;51.018;13.742;2024-03-23T04:00:07;20.35;;;10.93;;
75698;SDS011;64313;51.018;13.742;2024-03-23T04:02:39;19.77;;;11.00;;
75698;SDS011;64313;51.018;13.742;2024-03-23T04:05:05;22.35;;;11.00;;
75698;SDS011;64313;51.018;13.742;2024-03-23T04:07:31;23.08;;;11.77;;
75698;SDS011;64313;51.018;13.742;2024-03-23T04:09:56;19.30;;;11.35;;
75698;SDS011;64313;51.018;13.742;2024-03-23T04:12:21;18.92;;;10.48;;
75698;SDS011;64313;51.018;13.742;2024-03-23T04:14:47;19.70;;;11.02;;
75698;SDS011;64313;51.018;13.742;2024-03-23T04:17:12;19.58;;;11.18;;
75698;SDS011;64313;51.018;13.742;2024-03-23T04:19:37;21.20;;;11.63;;
75698;SDS011;64313;51.018;13.742;2024-03-23T04:22:03;19.23;;;11.18;;
75698;SDS011;64313;51.018;13.742;2024-03-23T04:24:28;18.85;;;10.95;;
75698;SDS011;64313;51.018;13.742;2024-03-23T04:26:54;21.35;;;11.65;;
75698;SDS011;64313;51.018;13.742;2024-03-23T04:29:19;19.50;;;10.80;;
75698;SDS011;64313;51.018;13.742;2024-03-23T04:31:45;20.08;;;11.35;;
75698;SDS011;64313;51.018;13.742;2024-03-23T04:34:10;23.00;;;12.55;;
75698;SDS011;64313;51.018;13.742;2024-03-23T04:36:36;21.42;;;12.50;;
75698;SDS011;64313;51.018;13.742;2024-03-23T04:39:02;20.85;;;11.57;;
75698;SDS011;64313;51.018;13.742;2024-03-23T04:41:27;22.40;;;12.05;;
75698;SDS011;64313;51.018;13.742;2024-03-23T04:43:52;23.02;;;12.55;;
75698;SDS011;64313;51.018;13.742;2024-03-23T04:46:18;21.08;;;12.73;;
75698;SDS011;64313;51.018;13.742;2024-03-23T04:48:43;21.27;;;12.05;;
75698;SDS011;64313;51.018;13.742;2024-03-23T04:51:19;21.33;;;12.80;;
75698;SDS011;64313;51.018;13.742;2024-03-23T04:53:46;23.83;;;12.68;;
75698;SDS011;64313;51.018;13.742;2024-03-23T04:56:13;23.38;;;12.63;;
75698;SDS011;64313;51.018;13.742;2024-03-23T04:58:38;21.02;;;11.77;;
75698;SDS011;64313;51.018;13.742;2024-03-23T05:01:03;23.02;;;13.20;;
75698;SDS011;64313;51.018;13.742;2024-03-23T05:03:29;24.50;;;13.05;;
75698;SDS011;64313;51.018;13.742;2024-03-23T05:05:54;23.80;;;12.85;;
75698;SDS011;64313;51.018;13.742;2024-03-23T05:08:19;26.08;;;12.98;;
75698;SDS011;64313;51.018;13.742;2024-03-23T05:10:45;24.13;;;12.82;;
75698;SDS011;64313;51.018;13.742;2024-03-23T05:13:10;24.42;;;13.27;;
75698;SDS011;64313;51.018;13.742;2024-03-23T05:15:37;25.38;;;12.68;;
75698;SDS011;64313;51.018;13.742;2024-03-23T05:18:02;21.13;;;12.57;;
75698;SDS011;64313;51.018;13.742;2024-03-23T05:20:28;23.42;;;12.20;;
75698;SDS011;64313;51.018;13.742;2024-03-23T05:22:57;22.88;;;12.13;;
75698;SDS011;64313;51.018;13.742;2024-03-23T05:25:22;23.42;;;12.73;;
75698;SDS011;64313;51.018;13.742;2024-03-23T05:27:47;23.17;;;12.65;;
75698;SDS011;64313;51.018;13.742;2024-03-23T05:30:13;24.70;;;12.57;;
75698;SDS011;64313;51.018;13.742;2024-03-23T05:32:39;26.75;;;12.65;;
75698;SDS011;64313;51.018;13.742;2024-03-23T05:35:06;21.95;;;13.10;;
75698;SDS011;64313;51.018;13.742;2024-03-23T05:37:32;21.25;;;11.38;;
75698;SDS011;64313;51.018;13.742;2024-03-23T05:39:59;23.63;;;12.90;;
75698;SDS011;64313;51.018;13.742;2024-03-23T05:42:24;23.05;;;13.45;;
75698;SDS011;64313;51.018;13.742;2024-03-23T05:44:49;25.80;;;13.80;;
75698;SDS011;64313;51.018;13.742;2024-03-23T05:47:15;24.42;;;13.40;;
75698;SDS011;64313;51.018;13.742;2024-03-23T05:49:41;25.20;;;12.65;;
75698;SDS011;64313;51.018;13.742;2024-03-23T05:52:08;21.48;;;12.15;;
75698;SDS011;64313;51.018;13.742;2024-03-23T05:54:34;21.17;;;12.25;;
75698;SDS011;64313;51.018;13.742;2024-03-23T05:56:59;23.65;;;12.55;;
75698;SDS011;64313;51.018;13.742;2024-03-23T05:59:24;24.23;;;12.90;;
75698;SDS011;64313;51.018;13.742;2024-03-23T06:01:50;25.08;;;12.88;;
75698;SDS011;64313;51.018;13.742;2024-03-23T06:04:15;23.08;;;12.88;;
75698;SDS011;64313;51.018;13.742;2024-03-23T06:06:41;25.20;;;13.45;;
75698;SDS011;64313;51.018;13.742;2024-03-23T06:09:06;23.73;;;13.45;;
75698;SDS011;64313;51.018;13.742;2024-03-23T06:11:32;21.27;;;11.73;;
75698;SDS011;64313;51.018;13.742;2024-03-23T06:13:58;23.92;;;12.30;;
75698;SDS011;64313;51.018;13.742;2024-03-23T06:16:23;22.92;;;12.10;;
75698;SDS011;64313;51.018;13.742;2024-03-23T06:18:50;23.65;;;12.38;;
75698;SDS011;64313;51.018;13.742;2024-03-23T06:21:16;21.63;;;11.88;;
75698;SDS011;64313;51.018;13.742;2024-03-23T06:23:41;22.00;;;12.00;;
75698;SDS011;64313;51.018;13.742;2024-03-23T06:26:07;23.67;;;11.70;;
75698;SDS011;64313;51.018;13.742;2024-03-23T06:28:33;22.08;;;11.07;;
75698;SDS011;64313;51.018;13.742;2024-03-23T06:30:58;20.05;;;10.82;;
75698;SDS011;64313;51.018;13.742;2024-03-23T06:33:24;21.23;;;11.05;;
75698;SDS011;64313;51.018;13.742;2024-03-23T06:35:50;21.00;;;11.02;;
75698;SDS011;64313;51.018;13.742;2024-03-23T06:38:17;22.05;;;11.05;;
75698;SDS011;64313;51.018;13.742;2024-03-23T06:43:44;20.02;;;10.50;;
75698;SDS011;64313;51.018;13.742;2024-03-23T06:46:09;20.20;;;10.82;;
75698;SDS011;64313;51.018;13.742;2024-03-23T06:48:34;23.25;;;10.95;;
75698;SDS011;64313;51.018;13.742;2024-03-23T06:51:00;20.58;;;11.38;;
75698;SDS011;64313;51.018;13.742;2024-03-23T06:53:25;22.17;;;11.60;;
75698;SDS011;64313;51.018;13.742;2024-03-23T06:55:51;23.85;;;12.55;;
75698;SDS011;64313;51.018;13.742;2024-03-23T06:58:18;22.52;;;11.35;;
75698;SDS011;64313;51.018;13.742;2024-03-23T07:00:47;23.13;;;12.18;;
75698;SDS011;64313;51.018;13.742;2024-03-23T07:03:14;22.63;;;11.93;;
75698;SDS011;64313;51.018;13.742;2024-03-23T07:05:40;22.85;;;12.18;;
75698;SDS011;64313;51.018;13.742;2024-03-23T07:08:05;24.77;;;12.05;;
75698;SDS011;64313;51.018;13.742;2024-03-23T07:10:31;26.70;;;13.73;;
75698;SDS011;64313;51.018;13.742;2024-03-23T07:12:56;30.25;;;13.95;;
75698;SDS011;64313;51.018;13.742;2024-03-23T07:15:22;29.20;;;13.45;;
75698;SDS011;64313;51.018;13.742;2024-03-23T07:17:47;31.35;;;14.27;;
75698;SDS011;64313;51.018;13.742;2024-03-23T07:20:13;24.88;;;13.07;;
75698;SDS011;64313;51.018;13.742;2024-03-23T07:22:38;25.27;;;13.38;;
75698;SDS011;64313;51.018;13.742;2024-03-23T07:25:04;24.38;;;13.25;;
75698;SDS011;64313;51.018;13.742;2024-03-23T07:27:31;24.58;;;12.90;;
75698;SDS011;64313;51.018;13.742;2024-03-23T07:29:56;22.00;;;12.38;;
75698;SDS011;64313;51.018;13.742;2024-03-23T07:32:21;26.98;;;13.20;;
75698;SDS011;64313;51.018;13.742;2024-03-23T07:34:47;24.23;;;12.35;;
75698;SDS011;64313;51.018;13.742;2024-03-23T07:37:12;21.20;;;11.38;;
75698;SDS011;64313;51.018;13.742;2024-03-23T07:39:38;20.88;;;11.27;;
75698;SDS011;64313;51.018;13.742;2024-03-23T07:42:04;22.75;;;11.55;;
75698;SDS011;64313;51.018;13.742;2024-03-23T07:44:30;19.23;;;10.02;;
75698;SDS011;64313;51.018;13.742;2024-03-23T07:46:56;18.02;;;10.38;;
75698;SDS011;64313;51.018;13.742;2024-03-23T07:49:21;17.48;;;10.13;;
75698;SDS011;64313;51.018;13.742;2024-03-23T07:51:47;20.10;;;11.30;;
75698;SDS011;64313;51.018;13.742;2024-03-23T07:54:12;20.83;;;11.00;;
75698;SDS011;64313;51.018;13.742;2024-03-23T07:56:38;18.90;;;10.52;;
75698;SDS011;64313;51.018;13.742;2024-03-23T07:59:03;20.40;;;10.82;;
75698;SDS011;64313;51.018;13.742;2024-03-23T08:01:28;19.58;;;11.05;;
75698;SDS011;64313;51.018;13.742;2024-03-23T08:03:54;21.63;;;11.23;;
75698;SDS011;64313;51.018;13.742;2024-03-23T08:06:19;22.73;;;11.45;;
75698;SDS011;64313;51.018;13.742;2024-03-23T08:08:47;22.02;;;12.00;;
75698;SDS011;64313;51.018;13.742;2024-03-23T08:11:15;21.63;;;12.20;;
75698;SDS011;64313;51.018;13.742;2024-03-23T08:13:40;26.45;;;13.65;;
75698;SDS011;64313;51.018;13.742;2024-03-23T08:16:07;23.90;;;13.35;;
75698;SDS011;64313;51.018;13.742;2024-03-23T08:18:33;25.83;;;12.38;;
75698;SDS011;64313;51.018;13.742;2024-03-23T08:21:05;25.27;;;12.85;;
75698;SDS011;64313;51.018;13.742;2024-03-23T08:23:32;24.90;;;12.18;;
75698;SDS011;64313;51.018;13.742;2024-03-23T08:25:59;34.83;;;13.60;;
75698;SDS011;64313;51.018;13.742;2024-03-23T08:28:25;26.35;;;12.63;;
75698;SDS011;64313;51.018;13.742;2024-03-23T08:30:52;25.17;;;13.23;;
75698;SDS011;64313;51.018;13.742;2024-03-23T08:33:18;24.55;;;12.73;;
75698;SDS011;64313;51.018;13.742;2024-03-23T08:35:53;23.63;;;12.32;;
75698;SDS011;64313;51.018;13.742;2024-03-23T08:38:20;24.00;;;13.55;;
75698;SDS011;64313;51.018;13.742;2024-03-23T08:40:45;21.88;;;11.73;;
75698;SDS011;64313;51.018;13.742;2024-03-23T08:43:10;27.38;;;12.57;;
75698;SDS011;64313;51.018;13.742;2024-03-23T08:45:36;31.40;;;14.02;;
75698;SDS011;64313;51.018;13.742;2024-03-23T08:48:01;25.50;;;12.25;;
75698;SDS011;64313;51.018;13.742;2024-03-23T08:50:27;21.58;;;11.32;;
75698;SDS011;64313;51.018;13.742;2024-03-23T08:52:53;20.13;;;11.57;;
75698;SDS011;64313;51.018;13.742;2024-03-23T08:55:18;21.60;;;11.52;;
75698;SDS011;64313;51.018;13.742;2024-03-23T08:57:43;24.90;;;12.02;;
75698;SDS011;64313;51.018;13.742;2024-03-23T09:00:09;23.00;;;10.95;;
75698;SDS011;64313;51.018;13.742;2024-03-23T09:02:36;22.25;;;11.85;;
75698;SDS011;64313;51.018;13.742;2024-03-23T09:05:01;21.15;;;11.23;;
75698;SDS011;64313;51.018;13.742;2024-03-23T09:07:30;22.13;;;11.40;;
75698;SDS011;64313;51.018;13.742;2024-03-23T09:09:56;17.55;;;10.40;;
75698;SDS011;64313;51.018;13.742;2024-03-23T09:12:21;18.85;;;9.93;;
75698;SDS011;64313;51.018;13.742;2024-03-23T09:14:46;19.25;;;10.85;;
75698;SDS011;64313;51.018;13.742;2024-03-23T09:17:12;19.88;;;11.02;;
75698;SDS011;64313;51.018;13.742;2024-03-23T09:19:38;15.75;;;9.32;;
75698;SDS011;64313;51.018;13.742;2024-03-23T09:22:04;18.23;;;10.15;;
75698;SDS011;64313;51.018;13.742;2024-03-23T09:24:30;18.42;;;8.82;;
75698;SDS011;64313;51.018;13.742;2024-03-23T09:26:57;13.18;;;7.93;;
75698;SDS011;64313;51.018;13.742;2024-03-23T09:29:22;12.32;;;7.22;;
75698;SDS011;64313;51.018;13.742;2024-03-23T09:31:47;13.57;;;7.28;;
75698;SDS011;64313;51.018;13.742;2024-03-23T09:34:12;13.88;;;7.85;;
75698;SDS011;64313;51.018;13.742;2024-03-23T09:36:38;11.48;;;6.75;;
75698;SDS011;64313;51.018;13.742;2024-03-23T09:39:03;13.02;;;7.50;;
75698;SDS011;64313;51.018;13.742;2024-03-23T09:41:30;12.20;;;6.95;;
75698;SDS011;64313;51.018;13.742;2024-03-23T09:43:56;12.90;;;6.90;;
75698;SDS011;64313;51.018;13.742;2024-03-23T09:46:21;16.77;;;7.95;;
75698;SDS011;64313;51.018;13.742;2024-03-23T09:48:47;11.77;;;6.80;;
75698;SDS011;64313;51.018;13.742;2024-03-23T09:51:12;15.70;;;8.30;;
75698;SDS011;64313;51.018;13.742;2024-03-23T09:53:37;15.40;;;8.43;;
75698;SDS011;64313;51.018;13.742;2024-03-23T09:56:03;16.20;;;8.50;;
75698;SDS011;64313;51.018;13.742;2024-03-23T09:58:29;15.98;;;8.27;;
75698;SDS011;64313;51.018;13.742;2024-03-23T10:00:54;13.20;;;5.57;;
75698;SDS011;64313;51.018;13.742;2024-03-23T10:03:19;8.80;;;3.42;;
75698;SDS011;64313;51.018;13.742;2024-03-23T10:05:45;8.50;;;2.50;;
75698;SDS011;64313;51.018;13.742;2024-03-23T10:10:38;6.45;;;1.50;;
75698;SDS011;64313;51.018;13.742;2024-03-23T10:13:03;6.00;;;1.30;;
75698;SDS011;64313;51.018;13.742;2024-03-23T10:15:29;2.20;;;0.60;;
75698;SDS011;64313;51.018;13.742;2024-03-23T10:17:54;2.05;;;0.50;;
75698;SDS011;64313;51.018;13.742;2024-03-23T10:20:22;2.30;;;0.40;;
75698;SDS011;64313;51.018;13.742;2024-03-23T10:22:51;1.30;;;0.38;;
75698;SDS011;64313;51.018;13.742;2024-03-23T10:25:17;1.95;;;0.80;;
75698;SDS011;64313;51.018;13.742;2024-03-23T10:27:43;0.60;;;0.20;;
75698;SDS011;64313;51.018;13.742;2024-03-23T10:30:12;0.57;;;0.20;;
75698;SDS011;64313;51.018;13.742;2024-03-23T10:32:41;0.20;;;0.20;;
75698;SDS011;64313;51.018;13.742;2024-03-23T10:35:19;0.50;;;0.28;;
75698;SDS011;64313;51.018;13.742;2024-03-23T10:37:48;0.65;;;0.30;;
75698;SDS011;64313;51.018;13.742;2024-03-23T10:40:16;2.33;;;0.40;;
75698;SDS011;64313;51.018;13.742;2024-03-23T10:42:43;1.30;;;0.40;;
75698;SDS011;64313;51.018;13.742;2024-03-23T10:45:09;1.20;;;0.50;;
75698;SDS011;64313;51.018;13.742;2024-03-23T10:47:35;1.15;;;0.50;;
75698;SDS011;64313;51.018;13.742;2024-03-23T10:50:03;1.65;;;0.40;;
75698;SDS011;64313;51.018;13.742;2024-03-23T10:52:30;1.23;;;0.30;;
75698;SDS011;64313;51.018;13.742;2024-03-23T10:54:55;0.65;;;0.20;;
75698;SDS011;64313;51.018;13.742;2024-03-23T10:57:27;1.17;;;0.30;;
75698;SDS011;64313;51.018;13.742;2024-03-23T10:59:59;1.33;;;0.40;;
75698;SDS011;64313;51.018;13.742;2024-03-23T11:02:26;1.50;;;0.30;;
75698;SDS011;64313;51.018;13.742;2024-03-23T11:04:53;0.63;;;0.30;;
75698;SDS011;64313;51.018;13.742;2024-03-23T11:07:31;0.93;;;0.30;;
75698;SDS011;64313;51.018;13.742;2024-03-23T11:09:57;1.23;;;0.45;;
75698;SDS011;64313;51.018;13.742;2024-03-23T11:14:49;0.53;;;0.20;;
75698;SDS011;64313;51.018;13.742;2024-03-23T11:17:18;0.13;;;0.13;;
75698;SDS011;64313;51.018;13.742;2024-03-23T11:19:54;0.88;;;0.40;;
75698;SDS011;64313;51.018;13.742;2024-03-23T11:22:39;0.60;;;0.30;;
75698;SDS011;64313;51.018;13.742;2024-03-23T11:25:13;0.60;;;0.25;;
75698;SDS011;64313;51.018;13.742;2024-03-23T11:27:40;0.40;;;0.30;;
75698;SDS011;64313;51.018;13.742;2024-03-23T11:30:18;0.90;;;0.40;;
75698;SDS011;64313;51.018;13.742;2024-03-23T11:32:44;0.65;;;0.30;;
75698;SDS011;64313;51.018;13.742;2024-03-23T11:35:15;0.70;;;0.40;;
75698;SDS011;64313;51.018;13.742;2024-03-23T11:38:14;0.22;;;0.20;;
75698;SDS011;64313;51.018;13.742;2024-03-23T11:40:46;1.05;;;0.30;;
75698;SDS011;64313;51.018;13.742;2024-03-23T11:43:14;0.90;;;0.40;;
75698;SDS011;64313;51.018;13.742;2024-03-23T11:45:50;0.30;;;0.30;;
75698;SDS011;64313;51.018;13.742;2024-03-23T11:48:18;2.15;;;0.40;;
75698;SDS011;64313;51.018;13.742;2024-03-23T11:50:46;0.75;;;0.40;;
75698;SDS011;64313;51.018;13.742;2024-03-23T11:53:16;1.38;;;0.50;;
75698;SDS011;64313;51.018;13.742;2024-03-23T11:55:51;0.98;;;0.50;;
75698;SDS011;64313;51.018;13.742;2024-03-23T11:58:19;0.95;;;0.38;;
75698;SDS011;64313;51.018;13.742;2024-03-23T12:00:58;1.45;;;0.50;;
75698;SDS011;64313;51.018;13.742;2024-03-23T12:03:24;2.90;;;0.52;;
75698;SDS011;64313;51.018;13.742;2024-03-23T12:05:54;1.00;;;0.43;;
75698;SDS011;64313;51.018;13.742;2024-03-23T12:08:24;1.23;;;0.40;;
75698;SDS011;64313;51.018;13.742;2024-03-23T12:11:04;0.45;;;0.30;;
75698;SDS011;64313;51.018;13.742;2024-03-23T12:13:30;1.00;;;0.50;;
75698;SDS011;64313;51.018;13.742;2024-03-23T12:15:57;1.15;;;0.50;;
75698;SDS011;64313;51.018;13.742;2024-03-23T12:18:34;1.00;;;0.40;;
75698;SDS011;64313;51.018;13.742;2024-03-23T12:21:00;1.75;;;0.55;;
75698;SDS011;64313;51.018;13.742;2024-03-23T12:23:25;1.48;;;0.60;;
75698;SDS011;64313;51.018;13.742;2024-03-23T12:28:16;0.73;;;0.45;;
75698;SDS011;64313;51.018;13.742;2024-03-23T12:30:42;1.65;;;0.63;;
75698;SDS011;64313;51.018;13.742;2024-03-23T12:33:07;2.55;;;0.90;;
75698;SDS011;64313;51.018;13.742;2024-03-23T12:35:32;3.20;;;1.10;;
75698;SDS011;64313;51.018;13.742;2024-03-23T12:37:58;2.22;;;0.80;;
75698;SDS011;64313;51.018;13.742;2024-03-23T12:40:24;1.88;;;0.82;;
75698;SDS011;64313;51.018;13.742;2024-03-23T12:42:49;1.92;;;0.70;;
75698;SDS011;64313;51.018;13.742;2024-03-23T12:45:15;1.73;;;0.75;;
75698;SDS011;64313;51.018;13.742;2024-03-23T12:47:40;1.60;;;0.80;;
75698;SDS011;64313;51.018;13.742;2024-03-23T12:50:05;1.92;;;0.80;;
75698;SDS011;64313;51.018;13.742;2024-03-23T12:52:32;2.13;;;0.95;;
75698;SDS011;64313;51.018;13.742;2024-03-23T12:54:58;1.80;;;0.88;;
75698;SDS011;64313;51.018;13.742;2024-03-23T12:57:26;2.28;;;1.02;;
75698;SDS011;64313;51.018;13.742;2024-03-23T12:59:52;2.22;;;1.00;;
75698;SDS011;64313;51.018;13.742;2024-03-23T13:02:21;2.75;;;1.20;;
75698;SDS011;64313;51.018;13.742;2024-03-23T13:04:49;2.33;;;1.00;;
75698;SDS011;64313;51.018;13.742;2024-03-23T13:07:15;2.55;;;1.17;;
75698;SDS011;64313;51.018;13.742;2024-03-23T13:09:40;2.40;;;1.00;;
75698;SDS011;64313;51.018;13.742;2024-03-23T13:14:31;2.75;;;1.05;;
75698;SDS011;64313;51.018;13.742;2024-03-23T13:20:17;2.95;;;1.25;;
75698;SDS011;64313;51.018;13.742;2024-03-23T13:22:42;2.15;;;0.90;;
75698;SDS011;64313;51.018;13.742;2024-03-23T13:25:07;2.78;;;1.13;;
75698;SDS011;64313;51.018;13.742;2024-03-23T13:27:33;3.65;;;1.20;;
75698;SDS011;64313;51.018;13.742;2024-03-23T13:29:58;2.60;;;1.08;;
75698;SDS011;64313;51.018;13.742;2024-03-23T13:32:23;2.70;;;1.17;;
75698;SDS011;64313;51.018;13.742;2024-03-23T13:34:49;2.75;;;1.17;;
75698;SDS011;64313;51.018;13.742;2024-03-23T13:37:15;2.60;;;0.93;;
75698;SDS011;64313;51.018;13.742;2024-03-23T13:39:41;3.00;;;1.15;;
75698;SDS011;64313;51.018;13.742;2024-03-23T13:42:07;3.58;;;1.20;;
75698;SDS011;64313;51.018;13.742;2024-03-23T13:44:34;3.30;;;1.20;;
75698;SDS011;64313;51.018;13.742;2024-03-23T13:46:59;4.25;;;1.20;;
75698;SDS011;64313;51.018;13.742;2024-03-23T13:49:25;4.53;;;1.20;;
75698;SDS011;64313;51.018;13.742;2024-03-23T13:51:53;4.25;;;1.10;;
75698;SDS011;64313;51.018;13.742;2024-03-23T13:54:19;6.13;;;1.10;;
75698;SDS011;64313;51.018;13.742;2024-03-23T13:56:45;4.90;;;1.23;;
75698;SDS011;64313;51.018;13.742;2024-03-23T14:01:35;5.67;;;1.00;;
75698;SDS011;64313;51.018;13.742;2024-03-23T14:06:26;3.63;;;1.10;;
75698;SDS011;64313;51.018;13.742;2024-03-23T14:08:51;4.15;;;1.00;;
75698;SDS011;64313;51.018;13.742;2024-03-23T14:11:18;4.28;;;0.90;;
75698;SDS011;64313;51.018;13.742;2024-03-23T14:13:43;3.42;;;0.95;;
75698;SDS011;64313;51.018;13.742;2024-03-23T14:16:09;3.33;;;1.08;;
75698;SDS011;64313;51.018;13.742;2024-03-23T14:18:34;3.20;;;1.00;;
75698;SDS011;64313;51.018;13.742;2024-03-23T14:21:00;4.88;;;1.17;;
75698;SDS011;64313;51.018;13.742;2024-03-23T14:23:30;5.78;;;1.10;;
75698;SDS011;64313;51.018;13.742;2024-03-23T14:25:59;4.47;;;1.60;;
75698;SDS011;64313;51.018;13.742;2024-03-23T14:28:24;4.18;;;1.40;;
75698;SDS011;64313;51.018;13.742;2024-03-23T14:30:50;4.63;;;1.23;;
75698;SDS011;64313;51.018;13.742;2024-03-23T14:33:16;5.72;;;1.23;;
75698;SDS011;64313;51.018;13.742;2024-03-23T14:35:42;3.60;;;1.13;;
75698;SDS011;64313;51.018;13.742;2024-03-23T14:38:08;6.82;;;1.42;;
75698;SDS011;64313;51.018;13.742;2024-03-23T14:40:33;6.03;;;1.95;;
75698;SDS011;64313;51.018;13.742;2024-03-23T14:42:59;5.35;;;1.25;;
75698;SDS011;64313;51.018;13.742;2024-03-23T14:45:24;5.10;;;1.67;;
75698;SDS011;64313;51.018;13.742;2024-03-23T14:47:53;5.95;;;1.48;;
75698;SDS011;64313;51.018;13.742;2024-03-23T14:50:18;4.82;;;1.30;;
75698;SDS011;64313;51.018;13.742;2024-03-23T14:52:44;2.83;;;1.30;;
75698;SDS011;64313;51.018;13.742;2024-03-23T14:55:12;4.40;;;1.25;;
75698;SDS011;64313;51.018;13.742;2024-03-23T14:57:38;5.43;;;1.27;;
75698;SDS011;64313;51.018;13.742;2024-03-23T15:00:07;4.78;;;1.48;;
75698;SDS011;64313;51.018;13.742;2024-03-23T15:02:33;5.60;;;1.13;;
75698;SDS011;64313;51.018;13.742;2024-03-23T15:04:59;6.55;;;1.60;;
75698;SDS011;64313;51.018;13.742;2024-03-23T15:07:25;4.53;;;1.25;;
75698;SDS011;64313;51.018;13.742;2024-03-23T15:09:50;8.35;;;1.90;;
75698;SDS011;64313;51.018;13.742;2024-03-23T15:14:41;5.67;;;1.60;;
75698;SDS011;64313;51.018;13.742;2024-03-23T15:17:06;5.68;;;1.50;;
75698;SDS011;64313;51.018;13.742;2024-03-23T15:19:33;6.28;;;1.50;;
75698;SDS011;64313;51.018;13.742;2024-03-23T15:21:59;4.47;;;1.60;;
75698;SDS011;64313;51.018;13.742;2024-03-23T15:24:24;4.75;;;1.50;;
75698;SDS011;64313;51.018;13.742;2024-03-23T15:26:50;4.95;;;1.33;;
75698;SDS011;64313;51.018;13.742;2024-03-23T15:29:17;5.78;;;1.38;;
75698;SDS011;64313;51.018;13.742;2024-03-23T15:31:43;7.20;;;1.50;;